Bay Shore, NY

10:28 AM EST on February 27, 2015 (GMT -0500)
Islip | Change Station
CLOSE
Current Station
Personal Weather Station
Location: Islip, NY
Elevation: 26 ft
Nearby Weather Stations

Elev 26 ft 40.74 °N, 73.20 °W | Updated 44 seconds ago

Clear
Clear
24.1 °F
Feels Like 24 °F
N
0.0
Wind Variable Wind from NW
Gusts 0.0 mph

Today
High -- | Low -- °F
--% Chance of Precip.
Yesterday
High -- | Low -- °F
Precip. -- in
6:30 AM 5:41 PM
Waxing Gibbous, 69% visible
Pressure 30.36 in
Visibility 10.0 miles
Clouds Scattered Clouds 25000 ft
Windchill 24 °F
Dew Point 11 °F
Humidity 57%
Rainfall 0.00 in
Snow Depth Not available.
UV 3 out of 12
Pollen .50 out of 12
Air Quality Not available.
Flu Activity Not available.
METAR KISP 271456Z 35011KT 10SM SCT250 M06/M14 A3036 RMK AO2 SLP281 T10611144 51019

More Conditions Fewer Conditions

Pressure 30.36 in
Visibility 10.0 miles
Clouds Scattered Clouds 25000 ft
Windchill 24 °F
Dew Point 11 °F
Humidity 57%
Rainfall 0.00 in
Snow Depth Not available.
UV 3 out of 12
Pollen .50 out of 12
Air Quality Not available.
Flu Activity Not available.
METAR KISP 271456Z 35011KT 10SM SCT250 M06/M14 A3036 RMK AO2 SLP281 T10611144 51019

More Conditions Fewer Conditions

10-Day Weather Forecast

Almanac

Astronomy

Feb. 27, 2015 Rise Set
Actual Time
Civil Twilight
Nautical Twilight
Astronomical Twilight
Moon
Length of Visible Light
Length of Day
Tomorrow will be .
, % of the Moon is Illuminated

Today's Extremes

State Highs State Lows

Community

WunderPhotos

Upload Photos

1,800,694 photos uploaded!

WunderBlogs® & News

Nearby

Air Quality

  Air Quality AQ Index Pollutant
Not available.

Snow Depth

Station Depth Elevation

Earthquake Activity

City Distance Mag. Time & Date
Minimum magnitude displayed is 2.5.

Coastal Water Temperatures

Place Temperature

Nearby Weather Stations